Time;durP1;ratioP1;P1;durP2;ratioP2;P2;SDS_P1;SDS_P2;PMS_P1;PMS_P2;Temp;Humidity;BMP_temperature;BMP_pressure;BME280_temperature;BME280_humidity;BME280_pressure;Samples;Min_cycle;Max_cycle;Signal;HPM_P1;HPM_P2
2022/12/26 00:02:12;;;;;;;9.10;7.30;;;;;;;-1.89;97.42;102505.88;4999373;28;20034;-69
2022/12/26 00:04:37;;;;;;;8.93;6.90;;;;;;;-1.83;97.41;102498.78;4999117;28;20100;-69
2022/12/26 00:07:03;;;;;;;12.00;9.57;;;;;;;-1.92;97.28;102489.44;4999578;28;20422;-69
2022/12/26 00:09:31;;;;;;;14.97;9.17;;;;;;;-2.01;97.54;102492.31;4999636;28;20037;-69
2022/12/26 00:11:57;;;;;;;14.23;8.90;;;;;;;-1.94;98.15;102501.69;4999364;28;20080;-72
2022/12/26 00:14:22;;;;;;;13.07;8.23;;;;;;;-1.94;97.97;102509.53;4999031;28;20034;-67
2022/12/26 00:16:48;;;;;;;13.27;9.53;;;;;;;-2.04;98.09;102481.91;4981584;28;20037;-68
2022/12/26 00:19:13;;;;;;;13.07;9.40;;;;;;;-1.95;97.96;102506.06;4981256;28;20026;-68
2022/12/26 00:21:39;;;;;;;18.27;10.20;;;;;;;-1.95;97.45;102507.81;4999091;28;20030;-69
2022/12/26 00:24:05;;;;;;;14.63;11.30;;;;;;;-2.02;98.03;102524.53;4998877;28;20129;-69
2022/12/26 00:26:33;;;;;;;18.33;11.97;;;;;;;-2.09;97.65;102518.59;4981249;28;20809;-68
2022/12/26 00:28:59;;;;;;;15.75;11.00;;;;;;;-2.12;98.56;102521.28;4981181;28;20038;-69
2022/12/26 00:31:31;;;;;;;11.33;9.20;;;;;;;-2.03;97.91;102515.81;5000034;28;20092;-69
2022/12/26 00:33:57;;;;;;;14.43;10.00;;;;;;;-2.08;97.56;102515.09;4999975;28;20030;-69
2022/12/26 00:36:26;;;;;;;13.60;8.07;;;;;;;-2.07;98.49;102515.94;4999357;28;20300;-71
2022/12/26 00:38:54;;;;;;;11.70;7.90;;;;;;;-1.99;98.59;102524.47;4981352;28;20065;-69
2022/12/26 00:41:20;;;;;;;8.87;6.90;;;;;;;-1.89;98.13;102536.38;4994694;28;20749;-70
2022/12/26 00:43:46;;;;;;;11.13;7.23;;;;;;;-1.92;97.34;102526.88;4995340;28;20254;-68
2022/12/26 00:46:12;;;;;;;8.70;7.50;;;;;;;-1.97;96.64;102533.09;4995150;28;20265;-68
2022/12/26 00:48:38;;;;;;;10.23;7.57;;;;;;;-1.94;96.80;102543.47;4995343;28;20030;-69
2022/12/26 00:51:04;;;;;;;11.00;7.57;;;;;;;-2.10;96.84;102522.09;4995449;28;20268;-69
2022/12/26 00:53:30;;;;;;;7.73;6.73;;;;;;;-1.99;97.14;102532.28;4995558;28;20231;-68
2022/12/26 00:55:55;;;;;;;7.37;6.70;;;;;;;-2.04;96.96;102531.53;4995311;28;20844;-70
2022/12/26 00:58:22;;;;;;;8.87;7.43;;;;;;;-2.13;97.25;102523.94;5000068;28;20029;-69
2022/12/26 01:00:47;;;;;;;8.53;7.63;;;;;;;-2.14;97.39;102524.84;5006837;28;20054;-69
2022/12/26 01:03:16;;;;;;;9.10;6.93;;;;;;;-2.19;97.62;102527.56;5008871;28;20257;-69
2022/12/26 01:05:44;;;;;;;8.10;7.23;;;;;;;-2.14;98.37;102520.47;5002396;28;20030;-68
2022/12/26 01:08:10;;;;;;;12.60;8.70;;;;;;;-2.05;98.18;102524.59;4998752;28;20268;-69
2022/12/26 01:10:40;;;;;;;8.23;7.30;;;;;;;-2.06;97.81;102522.88;4998609;28;20270;-68
2022/12/26 01:13:05;;;;;;;9.20;7.10;;;;;;;-2.01;97.89;102523.66;4998129;28;20353;-70
2022/12/26 01:15:31;;;;;;;8.07;7.27;;;;;;;-1.92;98.36;102521.63;4999533;28;20282;-69
2022/12/26 01:17:58;;;;;;;9.20;6.80;;;;;;;-1.83;97.30;102520.53;5003595;28;20027;-68
2022/12/26 01:20:24;;;;;;;7.27;6.57;;;;;;;-1.80;97.56;102514.38;5008683;28;20030;-68
2022/12/26 01:22:50;;;;;;;6.93;6.23;;;;;;;-1.75;96.63;102522.94;4987995;28;20753;-69
2022/12/26 01:25:15;;;;;;;7.53;6.53;;;;;;;-1.78;96.67;102526.50;5008991;28;20064;-69
2022/12/26 01:27:41;;;;;;;8.63;7.73;;;;;;;-1.95;97.24;102523.47;5013770;28;20022;-69
2022/12/26 01:30:11;;;;;;;9.20;7.37;;;;;;;-2.03;97.13;102541.06;5010888;28;20390;-68
2022/12/26 01:32:36;;;;;;;8.00;6.87;;;;;;;-2.08;97.93;102535.13;5015906;28;20768;-68
2022/12/26 01:35:02;;;;;;;11.30;7.53;;;;;;;-2.11;97.65;102537.81;5015808;28;20274;-68
2022/12/26 01:37:31;;;;;;;12.83;8.53;;;;;;;-2.26;98.40;102542.53;5009355;28;20036;-72
2022/12/26 01:39:57;;;;;;;8.93;7.00;;;;;;;-2.39;99.01;102524.56;4995692;28;20844;-68
2022/12/26 01:42:24;;;;;;;8.87;7.47;;;;;;;-2.17;99.19;102540.56;4994646;28;20254;-68
2022/12/26 01:44:59;;;;;;;11.63;8.93;;;;;;;-2.00;98.89;102546.25;4994683;28;20084;-69
2022/12/26 01:47:38;;;;;;;12.17;9.47;;;;;;;-2.11;98.04;102529.97;4994675;28;20253;-70
2022/12/26 01:50:11;;;;;;;18.10;11.80;;;;;;;-2.21;97.97;102545.88;4996909;28;20746;-68
2022/12/26 01:52:44;;;;;;;11.40;9.13;;;;;;;-2.36;98.31;102546.22;4996441;28;20318;-69
2022/12/26 01:55:13;;;;;;;13.73;9.60;;;;;;;-2.43;99.23;102554.25;4994461;28;20022;-69
2022/12/26 01:57:41;;;;;;;;;;;;;;;-2.37;99.76;102549.72;4994559;28;20285;-68
2022/12/26 02:00:08;;;;;;;13.03;10.67;;;;;;;-2.34;100.00;102547.03;4994206;28;19909;-69
2022/12/26 02:05:32;;;;;;;15.83;10.77;;;;;;;-2.38;100.00;102541.94;4994223;28;20317;-69
2022/12/26 02:05:35;;;;;;;16.40;11.10;;;;;;;-2.30;98.87;102553.94;4993990;28;20253;-69
2022/12/26 02:08:11;;;;;;;12.00;8.80;;;;;;;-2.40;99.65;102554.16;4994040;28;20303;-69
2022/12/26 02:10:52;;;;;;;12.83;9.93;;;;;;;-2.47;100.00;102548.25;4993830;28;20249;-69
2022/12/26 02:13:18;;;;;;;12.20;9.90;;;;;;;-2.51;100.00;102541.38;4993884;28;20352;-68
2022/12/26 02:15:45;;;;;;;13.27;10.07;;;;;;;-2.47;100.00;102545.63;4993514;28;20341;-68
2022/12/26 02:18:11;;;;;;;13.90;10.43;;;;;;;-2.39;100.00;102551.50;4993857;28;20493;-70
2022/12/26 02:20:51;;;;;;;10.83;9.23;;;;;;;-2.24;100.00;102550.31;4993865;28;20245;-68
2022/12/26 02:23:41;;;;;;;11.40;9.37;;;;;;;-2.38;99.84;102547.16;4994336;28;20042;-69
2022/12/26 02:26:38;;;;;;;11.27;8.27;;;;;;;-2.42;100.00;102546.38;4993431;28;20360;-68
2022/12/26 02:29:20;;;;;;;12.33;9.23;;;;;;;-2.34;100.00;102547.03;4993595;28;20261;-69
2022/12/26 02:32:10;;;;;;;11.17;8.10;;;;;;;-2.36;100.00;102546.22;4993465;28;20301;-70
2022/12/26 02:34:56;;;;;;;11.63;8.80;;;;;;;-2.44;100.00;102548.16;4993348;28;20264;-68
2022/12/26 02:37:41;;;;;;;12.87;8.77;;;;;;;-2.52;100.00;102543.13;4993681;28;20615;-70
2022/12/26 02:40:36;;;;;;;10.30;7.80;;;;;;;-2.53;100.00;102551.00;4993519;28;20281;-70
2022/12/26 02:43:10;;;;;;;11.77;9.00;;;;;;;-2.54;100.00;102555.34;4970551;28;20262;-69
2022/12/26 02:48:53;;;;;;;11.00;8.57;;;;;;;-2.47;100.00;102556.06;5011864;28;20625;-67
2022/12/26 03:15:25;;;;;;;16.63;9.43;;;;;;;-2.26;100.00;102547.75;4993026;28;20276;-68
2022/12/26 03:18:02;;;;;;;13.73;9.53;;;;;;;-2.26;99.81;102558.19;4995351;28;20360;-69
2022/12/26 03:20:35;;;;;;;14.53;10.23;;;;;;;-2.33;99.93;102540.94;4994881;28;20272;-69
2022/12/26 03:23:12;;;;;;;19.73;12.57;;;;;;;-2.24;100.00;102551.16;4994263;28;20269;-69
2022/12/26 03:28:46;;;;;;;14.20;10.03;;;;;;;-2.20;99.49;102550.19;4993477;28;20265;-71
2022/12/26 03:31:14;;;;;;;14.37;10.47;;;;;;;-2.31;99.11;102548.75;5007089;28;20281;-68
2022/12/26 03:36:40;;;;;;;12.93;9.13;;;;;;;-2.19;100.00;102557.13;5002263;28;20337;-69
2022/12/26 04:20:44;;;;;;;12.73;9.37;;;;;;;-2.58;98.55;102566.75;4996231;28;20261;-70
2022/12/26 04:46:21;;;;;;;13.02;10.10;;;;;;;-3.09;98.96;102540.06;4995772;28;20065;-71
2022/12/26 04:51:33;;;;;;;14.40;10.10;;;;;;;-2.84;98.49;102543.00;4995412;28;20477;-67
2022/12/26 04:53:59;;;;;;;12.50;9.77;;;;;;;-2.83;97.86;102548.19;4995627;28;20100;-68
2022/12/26 04:56:24;;;;;;;9.47;8.23;;;;;;;-2.90;97.86;102543.09;4996343;28;20081;-70
2022/12/26 04:58:50;;;;;;;10.90;8.33;;;;;;;-3.03;97.86;102537.31;4962225;28;20474;-70
2022/12/26 05:09:34;;;;;;;12.47;8.33;;;;;;;-3.50;98.30;102518.28;4996401;28;20438;-68
2022/12/26 05:12:06;;;;;;;12.48;9.20;;;;;;;-3.48;99.45;102539.09;4996489;28;20602;-70
2022/12/26 05:14:34;;;;;;;12.43;8.45;;;;;;;-3.63;99.34;102529.84;4962736;28;20572;-72
2022/12/26 05:30:55;;;;;;;12.85;10.00;;;;;;;-3.74;99.03;102542.19;4999178;28;20030;-71
2022/12/26 05:36:30;;;;;;;15.80;10.75;;;;;;;-3.84;100.00;102545.84;4986078;28;20054;-74
2022/12/26 05:38:58;;;;;;;12.65;9.98;;;;;;;-3.84;100.00;102545.84;4974207;28;20054;-70
2022/12/26 05:41:24;;;;;;;14.70;9.73;;;;;;;-3.85;100.00;102539.78;4998015;28;20034;-71
2022/12/26 05:43:49;;;;;;;11.87;8.27;;;;;;;-3.78;100.00;102540.50;4998258;28;20027;-71
2022/12/26 05:46:22;;;;;;;15.53;10.93;;;;;;;-3.71;100.00;102543.88;5011670;28;20097;-72
2022/12/26 05:48:48;;;;;;;20.30;12.63;;;;;;;-3.79;99.64;102544.88;4979768;28;20466;-72
2022/12/26 05:51:14;;;;;;;17.23;11.50;;;;;;;-3.91;100.00;102536.44;4969502;28;20045;-72
2022/12/26 05:53:39;;;;;;;14.77;12.07;;;;;;;-3.90;100.00;102546.81;5004030;28;20030;-72
2022/12/26 05:56:09;;;;;;;15.87;11.30;;;;;;;-3.89;100.00;102532.06;5007191;28;20030;-70
2022/12/26 05:58:34;;;;;;;19.50;11.75;;;;;;;-3.71;100.00;102547.34;4999410;28;20022;-74
2022/12/26 06:01:15;;;;;;;21.33;12.20;;;;;;;-3.70;100.00;102543.00;4993995;28;20052;-70
2022/12/26 06:03:46;;;;;;;22.55;11.30;;;;;;;-3.76;100.00;102544.84;4993436;28;20025;-72
2022/12/26 06:06:11;;;;;;;14.25;9.90;;;;;;;-3.85;99.73;102549.31;4994172;28;20061;-73
2022/12/26 06:08:37;;;;;;;14.53;10.20;;;;;;;-3.92;100.00;102548.59;4993973;28;20454;-73
2022/12/26 06:11:11;;;;;;;12.20;10.30;;;;;;;-4.03;100.00;102544.47;4994121;28;20042;-72
2022/12/26 06:13:37;;;;;;;12.25;9.27;;;;;;;-4.16;100.00;102549.84;4994178;28;20088;-72
2022/12/26 06:16:11;;;;;;;15.63;10.20;;;;;;;-4.24;100.00;102543.91;4994227;28;20038;-73
2022/12/26 06:18:37;;;;;;;11.85;9.57;;;;;;;-4.36;100.00;102546.69;4993767;28;20414;-72
2022/12/26 06:21:05;;;;;;;12.48;9.63;;;;;;;-4.46;100.00;102545.13;4993957;28;20133;-73
2022/12/26 06:23:34;;;;;;;11.35;10.15;;;;;;;-4.46;100.00;102552.94;4960808;28;20474;-72
2022/12/26 06:26:00;;;;;;;10.50;8.65;;;;;;;-4.41;100.00;102554.56;4993925;28;20042;-71
2022/12/26 06:28:26;;;;;;;9.63;8.50;;;;;;;-4.27;100.00;102556.97;4994095;28;20360;-72
2022/12/26 06:30:52;;;;;;;17.00;8.93;;;;;;;-4.22;100.00;102543.88;4960193;28;20261;-72
2022/12/26 06:33:19;;;;;;;9.53;8.20;;;;;;;-4.20;100.00;102557.72;4993613;28;20081;-71
2022/12/26 06:35:44;;;;;;;13.10;8.35;;;;;;;-4.21;100.00;102540.41;4993180;28;20084;-70
2022/12/26 06:38:16;;;;;;;8.67;7.77;;;;;;;-4.11;100.00;102554.97;4974845;28;20046;-72
2022/12/26 06:40:42;;;;;;;12.00;7.35;;;;;;;-4.23;100.00;102544.78;4993734;28;20281;-72
2022/12/26 06:43:08;;;;;;;13.33;8.40;;;;;;;-4.28;100.00;102547.47;4993347;28;20386;-71
2022/12/26 06:45:34;;;;;;;17.20;8.33;;;;;;;-4.28;100.00;102555.25;4994249;28;20297;-72
2022/12/26 06:48:00;;;;;;;14.65;8.82;;;;;;;-4.39;100.00;102539.81;4975886;28;20037;-72
2022/12/26 06:50:26;;;;;;;16.33;8.83;;;;;;;-4.38;100.00;102548.47;4994119;28;20102;-71
2022/12/26 06:52:51;;;;;;;18.98;9.30;;;;;;;-4.38;100.00;102544.13;4994053;28;20022;-71
2022/12/26 06:55:17;;;;;;;13.33;8.97;;;;;;;-4.37;100.00;102545.84;4979470;28;20088;-72
2022/12/26 06:57:43;;;;;;;23.13;11.97;;;;;;;-4.35;100.00;102543.22;4960666;28;20054;-72
2022/12/26 07:00:09;;;;;;;18.37;11.50;;;;;;;-4.40;100.00;102540.69;4993871;28;20044;-71
2022/12/26 07:02:35;;;;;;;13.52;10.23;;;;;;;-4.52;100.00;102512.28;4993735;28;20041;-71
2022/12/26 07:05:00;;;;;;;18.67;10.87;;;;;;;-4.33;100.00;102536.28;4976911;28;20042;-74
2022/12/26 07:07:26;;;;;;;15.73;7.87;;;;;;;-4.22;100.00;102536.94;4992949;28;20030;-70
2022/12/26 07:09:51;;;;;;;12.50;7.93;;;;;;;-4.23;99.53;102547.38;4993928;28;20506;-71
2022/12/26 07:12:19;;;;;;;15.47;7.53;;;;;;;-4.23;100.00;102545.63;4993212;28;20038;-71
2022/12/26 07:14:49;;;;;;;8.45;7.65;;;;;;;-4.27;99.91;102546.56;4992844;28;20145;-71
2022/12/26 07:17:17;;;;;;;12.73;8.63;;;;;;;-4.34;100.00;102550.13;4976258;28;20434;-74
2022/12/26 07:19:42;;;;;;;13.23;8.40;;;;;;;-4.44;100.00;102530.34;4975860;28;20034;-74
2022/12/26 07:22:08;;;;;;;10.53;7.73;;;;;;;-4.39;100.00;102554.53;4975885;28;20379;-73
2022/12/26 07:24:33;;;;;;;10.77;7.97;;;;;;;-4.40;100.00;102563.22;4993101;28;20054;-73
2022/12/26 07:26:59;;;;;;;10.60;9.00;;;;;;;-4.48;100.00;102555.56;4992848;28;20038;-73
2022/12/26 07:29:24;;;;;;;21.00;9.73;;;;;;;-4.51;100.00;102562.53;4993031;28;20030;-72
2022/12/26 07:31:50;;;;;;;12.90;9.10;;;;;;;-4.55;100.00;102555.69;4992687;28;20031;-72
2022/12/26 07:34:15;;;;;;;10.83;8.23;;;;;;;-4.73;100.00;102529.06;4992682;28;20121;-71
2022/12/26 07:36:41;;;;;;;14.17;9.33;;;;;;;-4.64;100.00;102551.44;4992431;28;20022;-72
2022/12/26 07:39:08;;;;;;;18.47;11.00;;;;;;;-4.62;100.00;102557.50;4992695;28;20546;-71
2022/12/26 07:44:17;;;;;;;14.75;10.73;;;;;;;-4.56;100.00;102557.41;4993584;28;20042;-72
2022/12/26 07:46:45;;;;;;;13.63;11.17;;;;;;;-4.63;100.00;102552.31;4993617;28;20034;-72
2022/12/26 07:49:11;;;;;;;15.73;11.38;;;;;;;-4.53;100.00;102559.13;4976521;28;20030;-71
2022/12/26 07:51:37;;;;;;;15.60;11.67;;;;;;;-4.46;100.00;102550.34;4997113;28;20104;-71
2022/12/26 07:54:03;;;;;;;16.58;11.07;;;;;;;-4.32;100.00;102553.59;4979218;28;20382;-73
2022/12/26 07:56:30;;;;;;;17.70;9.53;;;;;;;-4.37;100.00;102544.97;4996712;28;20034;-71
2022/12/26 07:58:56;;;;;;;13.57;10.82;;;;;;;-4.46;100.00;102539.94;4996695;28;20030;-73
2022/12/26 08:01:21;;;;;;;17.47;11.50;;;;;;;-4.59;100.00;102536.66;4997192;28;20041;-73
2022/12/26 08:03:48;;;;;;;14.50;10.80;;;;;;;-4.68;100.00;102544.56;4996582;28;20033;-71
2022/12/26 08:06:14;;;;;;;16.60;11.02;;;;;;;-4.65;100.00;102551.47;4996354;28;20045;-71
2022/12/26 08:08:40;;;;;;;15.80;10.20;;;;;;;-4.63;100.00;102557.50;4996377;28;20030;-71
2022/12/26 08:11:08;;;;;;;13.30;11.23;;;;;;;-4.51;100.00;102562.53;4996281;28;20157;-71
2022/12/26 08:13:34;;;;;;;17.40;10.55;;;;;;;-4.45;100.00;102552.03;4996226;28;20432;-73
2022/12/26 08:16:05;;;;;;;15.70;11.02;;;;;;;-4.30;100.00;102567.44;4996173;28;20050;-72
2022/12/26 08:18:31;;;;;;;17.13;10.45;;;;;;;-4.18;100.00;102563.75;4996793;28;20033;-73
2022/12/26 08:20:57;;;;;;;13.77;10.87;;;;;;;-4.42;99.23;102536.41;4996642;28;20118;-70
2022/12/26 08:23:22;;;;;;;14.82;10.25;;;;;;;-4.64;99.79;102519.41;4996580;28;20030;-73
2022/12/26 08:25:48;;;;;;;18.53;11.70;;;;;;;-4.49;100.00;102560.78;4996192;28;20065;-72
2022/12/26 08:28:14;;;;;;;16.63;9.93;;;;;;;-4.70;100.00;102535.94;4996316;28;20109;-72
2022/12/26 08:30:40;;;;;;;13.53;9.97;;;;;;;-4.54;100.00;102562.59;4979103;28;20030;-72
2022/12/26 08:33:06;;;;;;;17.35;11.13;;;;;;;-4.61;100.00;102556.63;4996453;28;20034;-73
2022/12/26 08:35:33;;;;;;;15.98;9.88;;;;;;;-4.62;100.00;102560.13;4996242;28;20121;-72
2022/12/26 08:38:00;;;;;;;15.05;9.25;;;;;;;-4.59;100.00;102564.41;4996101;28;20054;-72
2022/12/26 08:40:26;;;;;;;17.60;9.70;;;;;;;-4.62;100.00;102554.91;4996587;28;20042;-71
2022/12/26 08:42:51;;;;;;;16.20;10.63;;;;;;;-4.58;100.00;102555.72;4996639;28;20038;-72
2022/12/26 08:45:17;;;;;;;16.93;9.80;;;;;;;-4.63;99.73;102547.09;4996981;28;20066;-74
2022/12/26 08:47:42;;;;;;;16.00;10.60;;;;;;;-4.74;100.00;102545.53;4996694;28;20034;-73
2022/12/26 08:50:08;;;;;;;16.17;9.23;;;;;;;-4.75;99.19;102553.34;4980937;28;20374;-74
2022/12/26 08:52:34;;;;;;;14.80;11.10;;;;;;;-4.72;99.11;102553.31;4996733;28;20034;-72
2022/12/26 08:55:00;;;;;;;14.03;10.10;;;;;;;-4.87;98.83;102546.59;4995418;28;20529;-72
2022/12/26 08:57:26;;;;;;;16.23;9.68;;;;;;;-4.98;99.69;102548.47;4995636;28;20285;-74
2022/12/26 08:59:52;;;;;;;13.70;9.57;;;;;;;-4.97;99.88;102555.38;4995380;28;20030;-71
2022/12/26 09:02:17;;;;;;;10.93;8.47;;;;;;;-5.05;100.00;102552.03;4994989;28;20032;-72
2022/12/26 09:04:42;;;;;;;12.07;9.77;;;;;;;-5.20;99.26;102545.28;4994886;28;20034;-73
2022/12/26 09:07:08;;;;;;;12.23;9.03;;;;;;;-5.25;100.00;102548.78;4995364;28;20124;-71
2022/12/26 09:09:34;;;;;;;11.37;9.60;;;;;;;-5.28;100.00;102536.72;4995307;28;20038;-72
2022/12/26 09:12:00;;;;;;;11.80;9.20;;;;;;;-5.10;100.00;102549.47;4995343;28;20320;-72
2022/12/26 09:14:25;;;;;;;12.07;10.83;;;;;;;-5.09;99.58;102547.75;4994964;28;20391;-71
2022/12/26 09:16:52;;;;;;;11.87;8.13;;;;;;;-5.17;99.52;102532.25;4995183;28;20525;-71
2022/12/26 09:19:20;;;;;;;14.68;11.10;;;;;;;-5.31;100.00;102536.75;4977913;28;20105;-71
2022/12/26 09:21:46;;;;;;;14.23;9.48;;;;;;;-5.34;100.00;102531.59;4995078;28;20414;-72
2022/12/26 09:24:15;;;;;;;12.32;8.93;;;;;;;-5.27;100.00;102532.38;4995373;28;20026;-72
2022/12/26 09:26:41;;;;;;;13.15;7.82;;;;;;;-5.28;100.00;102525.47;4977933;28;20038;-73
2022/12/26 09:29:09;;;;;;;16.65;9.32;;;;;;;-5.23;99.24;102528.84;4994722;28;20542;-72
2022/12/26 09:31:35;;;;;;;11.98;9.57;;;;;;;-5.26;98.97;102528.91;4961402;28;20406;-73
2022/12/26 09:34:02;;;;;;;10.60;8.90;;;;;;;-5.27;99.80;102521.97;4994608;28;20032;-71
2022/12/26 09:36:30;;;;;;;10.30;8.23;;;;;;;-5.20;99.06;102528.84;4995292;28;20426;-71
2022/12/26 09:38:58;;;;;;;8.82;7.18;;;;;;;-5.15;98.98;102527.91;4977292;28;20038;-72
2022/12/26 09:41:31;;;;;;;9.43;8.18;;;;;;;-5.13;98.52;102517.50;4994552;28;20045;-74
2022/12/26 09:44:03;;;;;;;12.00;7.57;;;;;;;-5.11;98.29;102518.34;4994901;28;20042;-72
2022/12/26 09:47:03;;;;;;;9.75;7.18;;;;;;;-5.09;98.21;102513.97;4977357;28;20030;-71
2022/12/26 09:49:38;;;;;;;15.18;8.80;;;;;;;-5.02;98.29;102526.84;4995671;28;20038;-71
2022/12/26 09:52:14;;;;;;;12.05;8.20;;;;;;;-5.08;97.62;102518.28;4994352;28;20092;-72
2022/12/26 09:54:55;;;;;;;12.32;8.23;;;;;;;-5.18;97.55;102527.09;4994660;28;20117;-72
2022/12/26 09:57:34;;;;;;;12.45;8.77;;;;;;;-5.19;98.63;102520.19;4994472;28;20036;-73
2022/12/26 10:00:03;;;;;;;16.45;8.88;;;;;;;-5.28;97.78;102499.50;4993996;28;20034;-72
2022/12/26 10:02:30;;;;;;;12.40;8.45;;;;;;;-5.14;98.15;102508.84;4994330;28;20482;-71
2022/12/26 10:04:55;;;;;;;10.60;8.57;;;;;;;-5.11;98.05;102507.94;4994031;28;20034;-72
2022/12/26 10:07:26;;;;;;;10.47;7.90;;;;;;;-5.07;97.77;102512.22;4994204;28;20092;-71
2022/12/26 10:10:09;;;;;;;10.25;8.07;;;;;;;-5.17;98.44;102502.84;4994206;28;20065;-72
2022/12/26 10:12:59;;;;;;;11.45;7.95;;;;;;;-5.23;98.45;102501.16;5005324;28;20418;-72
2022/12/26 10:15:44;;;;;;;13.02;8.82;;;;;;;-5.36;98.25;102497.84;5000579;28;20046;-73
2022/12/26 10:18:12;;;;;;;12.30;8.43;;;;;;;-5.41;98.50;102504.00;4994440;28;20073;-71
2022/12/26 10:20:59;;;;;;;9.60;6.85;;;;;;;-5.35;99.16;102509.97;4993796;28;20355;-73
2022/12/26 10:23:29;;;;;;;14.07;7.97;;;;;;;-5.31;99.72;102496.06;4993531;28;20034;-72
2022/12/26 10:26:17;;;;;;;13.00;10.35;;;;;;;-5.34;97.77;102498.69;4993565;28;20035;-70
2022/12/26 10:29:07;;;;;;;8.55;7.18;;;;;;;-5.51;99.09;102498.03;4993809;28;20030;-71
2022/12/26 10:31:41;;;;;;;8.68;7.70;;;;;;;-5.66;99.23;102488.69;4993322;28;20038;-72
2022/12/26 10:34:10;;;;;;;11.85;8.15;;;;;;;-5.60;99.73;102498.16;4993256;28;20034;-73
2022/12/26 10:36:45;;;;;;;8.95;8.05;;;;;;;-5.91;99.00;102450.94;4993195;28;20044;-71
2022/12/26 10:39:24;;;;;;;8.30;7.30;;;;;;;-5.66;100.00;102482.66;4992964;28;20049;-71
2022/12/26 10:41:54;;;;;;;9.82;7.28;;;;;;;-5.52;99.99;102490.25;4993313;28;20099;-70
2022/12/26 10:44:20;;;;;;;8.48;7.05;;;;;;;-5.52;99.36;102479.88;4976316;28;20034;-71
2022/12/26 10:46:57;;;;;;;9.43;6.63;;;;;;;-5.56;99.04;102481.66;4976088;28;20022;-71
2022/12/26 10:49:25;;;;;;;9.00;6.55;;;;;;;-5.55;98.93;102480.78;4993216;28;20095;-72
2022/12/26 10:51:53;;;;;;;7.25;6.38;;;;;;;-5.54;98.43;102487.69;4993118;28;20035;-71
2022/12/26 10:54:19;;;;;;;8.07;6.95;;;;;;;-5.68;98.22;102474.03;4993161;28;20042;-71
2022/12/26 10:56:48;;;;;;;8.13;5.53;;;;;;;-5.76;98.90;102474.13;4993069;28;20374;-72
2022/12/26 10:59:19;;;;;;;6.45;5.05;;;;;;;-5.83;98.92;102480.22;4993026;28;20505;-70
2022/12/26 11:01:48;;;;;;;5.70;5.10;;;;;;;-5.96;99.00;102484.72;4993405;28;20034;-71
2022/12/26 11:04:18;;;;;;;6.40;5.13;;;;;;;-5.96;99.19;102483.88;4993381;28;20026;-72
2022/12/26 11:06:46;;;;;;;8.57;6.03;;;;;;;-5.94;99.54;102475.19;4993770;28;20030;-73
2022/12/26 11:09:30;;;;;;;7.65;5.40;;;;;;;-5.78;98.99;102472.38;4993448;28;20018;-71
2022/12/26 11:11:56;;;;;;;7.78;5.68;;;;;;;-5.77;99.38;102459.41;4993597;28;20487;-72
2022/12/26 11:14:27;;;;;;;10.90;5.40;;;;;;;-5.73;98.51;102473.22;4993226;28;20058;-72
2022/12/26 11:16:55;;;;;;;7.03;5.32;;;;;;;-5.85;98.44;102462.94;4993823;28;20128;-75
2022/12/26 11:19:30;;;;;;;10.93;5.20;;;;;;;-5.93;98.40;102469.13;4993970;28;20379;-74
2022/12/26 11:22:27;;;;;;;7.68;5.88;;;;;;;-6.13;99.18;102445.13;4977575;28;20030;-75
2022/12/26 11:25:08;;;;;;;8.40;5.30;;;;;;;-6.12;99.31;102446.84;4994328;28;20038;-76
2022/12/26 11:27:34;;;;;;;12.95;5.75;;;;;;;-6.08;99.18;102451.09;4993789;28;20026;-72
2022/12/26 11:30:18;;;;;;;13.40;5.65;;;;;;;-6.01;98.56;102460.56;4993761;28;20026;-72
2022/12/26 11:32:48;;;;;;;10.40;6.03;;;;;;;-6.12;98.80;102433.00;4993420;28;20034;-73
2022/12/26 11:35:22;;;;;;;8.75;5.85;;;;;;;-5.98;98.20;102444.97;4994379;28;20074;-72
2022/12/26 11:37:58;;;;;;;8.07;6.13;;;;;;;-5.97;98.80;102457.06;4993874;28;20084;-72
2022/12/26 11:40:37;;;;;;;12.43;7.32;;;;;;;-5.95;98.84;102455.31;4993051;28;20030;-72
2022/12/26 11:43:06;;;;;;;9.75;6.03;;;;;;;-6.04;98.33;102433.81;5001794;28;20030;-74
2022/12/26 11:45:41;;;;;;;9.35;6.97;;;;;;;-5.90;98.38;102457.00;4975642;28;20026;-72
2022/12/26 11:48:24;;;;;;;9.27;7.05;;;;;;;-5.89;98.67;102456.94;4964847;28;20030;-71
2022/12/26 11:50:50;;;;;;;9.75;6.35;;;;;;;-5.90;97.70;102457.00;4993530;28;20032;-72
2022/12/26 11:53:18;;;;;;;10.93;7.00;;;;;;;-5.92;97.23;102457.00;4993302;28;20022;-71
2022/12/26 11:55:45;;;;;;;7.95;5.93;;;;;;;-5.87;97.76;102464.72;4992347;28;20421;-72
2022/12/26 11:58:21;;;;;;;15.82;7.18;;;;;;;-5.88;98.41;102460.41;4992758;28;20041;-72
2022/12/26 12:00:49;;;;;;;12.57;6.95;;;;;;;-5.90;97.76;102457.00;4992466;28;20026;-72
2022/12/26 12:03:21;;;;;;;12.70;6.38;;;;;;;-5.94;97.44;102457.03;4992481;28;20490;-70
2022/12/26 12:06:07;;;;;;;16.20;7.80;;;;;;;-5.90;97.54;102451.81;4992619;28;20096;-71
2022/12/26 12:08:52;;;;;;;13.48;8.15;;;;;;;-5.98;97.47;102451.91;4991962;28;20023;-71
2022/12/26 12:11:32;;;;;;;20.13;9.13;;;;;;;-6.06;97.71;102446.78;4992325;28;20022;-71
2022/12/26 12:14:26;;;;;;;20.35;11.02;;;;;;;-6.20;97.98;102445.19;4992427;28;20062;-71
2022/12/26 12:16:55;;;;;;;18.45;8.40;;;;;;;-6.17;97.89;102452.94;4992799;28;20030;-73
2022/12/26 12:19:31;;;;;;;13.40;8.65;;;;;;;-6.20;98.17;102459.03;4992843;28;20612;-72
2022/12/26 12:22:21;;;;;;;15.48;9.60;;;;;;;-6.23;97.97;102453.88;4992581;28;20374;-71
2022/12/26 12:25:10;;;;;;;18.13;9.05;;;;;;;-6.26;98.39;102464.28;4992960;28;20031;-71
2022/12/26 12:27:57;;;;;;;16.77;9.97;;;;;;;-6.26;99.02;102459.09;4975456;28;20370;-72
2022/12/26 12:30:47;;;;;;;17.27;10.18;;;;;;;-6.27;98.95;102452.19;4975051;28;20741;-71
2022/12/26 12:33:27;;;;;;;16.92;9.63;;;;;;;-6.31;98.82;102464.31;4993160;28;20430;-71
2022/12/26 12:36:17;;;;;;;15.82;10.20;;;;;;;-6.33;99.24;102453.09;4977253;28;20113;-71
2022/12/26 12:39:01;;;;;;;13.77;9.65;;;;;;;-6.33;98.96;102453.09;4981509;28;20494;-71
2022/12/26 12:42:03;;;;;;;15.98;9.75;;;;;;;-6.32;99.08;102460.00;5004055;28;20359;-74
2022/12/26 12:44:47;;;;;;;14.18;10.68;;;;;;;-6.39;99.59;102452.28;5006085;28;20092;-71
2022/12/26 12:47:15;;;;;;;19.02;11.50;;;;;;;-6.48;98.73;102452.38;5005342;28;20073;-71
2022/12/26 12:50:01;;;;;;;21.25;11.35;;;;;;;-6.70;99.43;102447.34;5010664;28;20035;-70
2022/12/26 12:52:37;;;;;;;22.08;11.93;;;;;;;-6.72;100.00;102458.59;5008418;28;20041;-70
2022/12/26 12:55:17;;;;;;;17.30;11.50;;;;;;;-6.69;100.00;102461.16;5006466;28;20034;-71
2022/12/26 12:58:00;;;;;;;16.35;10.63;;;;;;;-6.71;100.00;102458.59;4998962;28;20125;-71
2022/12/26 13:00:51;;;;;;;18.10;11.50;;;;;;;-6.71;100.00;102453.41;4995346;28;20030;-71
2022/12/26 13:03:19;;;;;;;17.08;11.65;;;;;;;-6.72;100.00;102454.28;4996069;28;20030;-71
2022/12/26 13:06:03;;;;;;;18.48;11.15;;;;;;;-6.72;100.00;102454.28;4995325;28;20042;-72
2022/12/26 13:08:34;;;;;;;19.55;12.32;;;;;;;-6.76;100.00;102447.41;4995593;28;20030;-71
2022/12/26 13:11:07;;;;;;;16.30;10.38;;;;;;;-6.79;100.00;102447.44;4995612;28;20023;-73
2022/12/26 13:13:46;;;;;;;19.55;10.75;;;;;;;-6.80;100.00;102445.72;5004374;28;20026;-71
2022/12/26 13:16:15;;;;;;;19.65;11.80;;;;;;;-6.87;100.00;102434.53;5009584;28;20030;-70
2022/12/26 13:18:49;;;;;;;18.13;11.00;;;;;;;-6.80;100.00;102440.53;5010827;28;20026;-71
2022/12/26 13:21:15;;;;;;;18.20;10.07;;;;;;;-6.87;100.00;102433.69;5002967;28;20458;-72
2022/12/26 13:26:40;;;;;;;17.40;11.02;;;;;;;-6.90;100.00;102434.56;4995042;28;20026;-72
2022/12/26 13:29:15;;;;;;;22.20;11.95;;;;;;;-6.91;100.00;102429.41;4995376;28;20084;-71
2022/12/26 13:31:42;;;;;;;22.77;12.07;;;;;;;-6.92;100.00;102430.28;4995377;28;20032;-71
2022/12/26 13:34:13;;;;;;;24.27;12.93;;;;;;;-6.97;100.00;102419.06;4995131;28;20065;-74
2022/12/26 13:36:54;;;;;;;25.30;12.63;;;;;;;-6.94;100.00;102427.69;4994869;28;20030;-72
2022/12/26 13:39:45;;;;;;;24.58;14.48;;;;;;;-6.89;100.00;102427.66;4977349;28;20047;-72
2022/12/26 13:44:55;;;;;;;24.77;14.45;;;;;;;-6.88;100.00;102416.41;4994560;28;20045;-73
2022/12/26 13:47:38;;;;;;;28.10;16.77;;;;;;;-6.96;100.00;102413.00;4994578;28;20034;-72